This is the latest recevied weather packets stored in our database for station/object KF5VOI. If no packets are shown the sender has not sent any weather packets the latest 10 day(s).
| Time | Temp. | Humidity | Pressure | Rain* | Wind** | Luminosity | Snow |
|---|---|---|---|---|---|---|---|
| 1787435795 | 38.33° C | 52% | 1015.8 hPa | 0 mm | - | - | - |
| 1787433996 | 37.78° C | 52% | 1016 hPa | 0 mm | - | - | - |
| 1787432196 | 36.67° C | 66% | 1016.2 hPa | 0 mm | - | - | - |
| 1787430396 | 36.67° C | 66% | 1016.7 hPa | 0 mm | - | - | - |
| 1787428595 | 36.67° C | 67% | 1017 hPa | 0 mm | - | - | - |
| 1787426795 | 37.22° C | 64% | 1017.4 hPa | 0 mm | - | - | - |
| 1787424995 | 36.67° C | 66% | 1017.7 hPa | 0 mm | - | - | - |
| 1787423195 | 37.22° C | 65% | 1018 hPa | 0 mm | - | - | - |
| 1787421395 | 36.11° C | 68% | 1018.1 hPa | 0 mm | - | - | - |
| 1787419596 | 35.56° C | 68% | 1018.6 hPa | 0 mm | - | - | - |
| 1787417795 | 35° C | 71% | 1018.6 hPa | 0 mm | - | - | - |
| 1787415995 | 33.33° C | 76% | 1018.7 hPa | 0 mm | - | - | - |
| 1787414196 | 32.22° C | 79% | 1018.6 hPa | 0 mm | - | - | - |
| 1787410596 | 30.56° C | 83% | 1018.3 hPa | 0 mm | - | - | - |
| 1787406995 | 27.78° C | 99% | 1018.9 hPa | 0 mm | - | - | - |
| 1787399795 | 23.33° C | 99% | 1018.5 hPa | 0 mm | - | - | - |
| 1787396195 | 23.33° C | 99% | 1017.8 hPa | 0 mm | - | - | - |
| 1787394395 | 23.33° C | 99% | 1017.5 hPa | 0 mm | - | - | - |
| 1787392595 | 23.33° C | 99% | 1017.4 hPa | 0 mm | - | - | - |
| 1787390795 | 23.89° C | 99% | 1017 hPa | 0 mm | - | - | - |
| 1787381796 | 23.33° C | 99% | 1016.2 hPa | 0 mm | - | - | - |
| 1787378196 | 23.33° C | 99% | 1017 hPa | 0 mm | - | - | - |
| 1787370996 | 23.89° C | 99% | 1017.6 hPa | 0 mm | - | - | - |
| 1787367396 | 23.89° C | 99% | 1016.6 hPa | 0.25 mm | - | - | - |
| 1787365596 | 23.89° C | 99% | 1016.6 hPa | 0.51 mm | - | - | - |
* Rain latest hour (hover to see other rain measurements)
** Current wind speed in m/s (hover to see current wind gust speed)